Terminal Aerodrome Forecast
Issued by NWS

Home | Current Version | Previous Version | Graphics & Text | Print | Product List | Glossary On
Versions: 1 2 3 4 5 6 7 8 9 10 11 12 13
938
FTUS43 KIWX 202332
TAFSBN
TAF
KSBN 202332Z 2100/2124 27012G22KT P6SM VCSH SCT025 OVC060
     FM210200 26006KT P6SM SCT025 BKN050
     FM211200 28010KT P6SM SCT020 BKN040
      TEMPO 2113/2116 BKN020
     FM211600 30014G22KT P6SM SCT025 BKN050
     FM212200 30008KT P6SM SCT060=

USA.gov is the U.S. government's official web portal to all federal, state and local government web resources and services.